createdAt,value
2019-03-12T00:00:27.685Z,42.85
2019-03-12T00:02:56.868Z,43.12
2019-03-12T00:05:26.380Z,43.53
2019-03-12T00:07:55.629Z,43.80
2019-03-12T00:10:24.804Z,43.70
2019-03-12T00:12:54.144Z,43.25
2019-03-12T00:15:23.423Z,42.83
2019-03-12T00:17:52.695Z,42.82
2019-03-12T00:20:21.986Z,42.79
2019-03-12T00:22:51.168Z,42.75
2019-03-12T00:25:20.350Z,42.86
2019-03-12T00:27:49.642Z,43.12
2019-03-12T00:30:19.193Z,43.40
2019-03-12T00:32:48.492Z,43.44
2019-03-12T00:35:17.811Z,42.46
2019-03-12T00:37:46.993Z,42.55
2019-03-12T00:40:16.263Z,42.17
2019-03-12T00:42:45.442Z,42.23
2019-03-12T00:45:14.645Z,41.78
2019-03-12T00:47:44.018Z,41.77
2019-03-12T00:50:13.192Z,42.01
2019-03-12T00:52:42.379Z,42.26
2019-03-12T00:55:11.707Z,42.44
2019-03-12T00:57:40.879Z,42.43
2019-03-12T01:00:15.751Z,42.41
2019-03-12T01:02:44.928Z,42.33
2019-03-12T01:05:14.243Z,42.20
2019-03-12T01:07:43.479Z,42.09
2019-03-12T01:10:14.386Z,41.81
2019-03-12T01:12:43.649Z,41.82
2019-03-12T01:15:15.770Z,41.94
2019-03-12T01:17:45.028Z,41.87
2019-03-12T01:20:15.344Z,41.63
2019-03-12T01:22:44.524Z,41.76
2019-03-12T01:25:14.291Z,41.93
2019-03-12T01:27:43.470Z,42.26
2019-03-12T01:30:15.610Z,42.12
2019-03-12T01:32:44.889Z,41.90
2019-03-12T01:35:14.104Z,42.12
2019-03-12T01:37:43.287Z,42.37
2019-03-12T01:40:13.854Z,43.04
2019-03-12T01:42:43.027Z,42.90
2019-03-12T01:45:15.581Z,43.18
2019-03-12T01:47:45.295Z,44.13
2019-03-12T01:50:15.303Z,44.36
2019-03-12T01:52:44.476Z,44.84
2019-03-12T01:55:15.041Z,44.79
2019-03-12T01:57:44.220Z,44.00
2019-03-12T02:00:16.274Z,44.47
2019-03-12T02:02:45.778Z,44.79
2019-03-12T02:05:15.097Z,45.12
2019-03-12T02:07:44.438Z,45.12
2019-03-12T02:10:16.550Z,45.34
2019-03-12T02:12:45.769Z,44.90
2019-03-12T02:15:17.121Z,45.05
2019-03-12T02:17:46.297Z,45.50
2019-03-12T02:20:19.543Z,46.23
2019-03-12T02:22:48.730Z,46.44
2019-03-12T02:25:18.939Z,45.68
2019-03-12T02:27:48.180Z,44.89
2019-03-12T02:30:18.907Z,44.49
2019-03-12T02:32:48.275Z,44.07
2019-03-12T02:35:17.492Z,44.38
2019-03-12T02:37:46.757Z,44.56
2019-03-12T02:40:16.198Z,44.64
2019-03-12T02:42:45.494Z,44.58
2019-03-12T02:45:17.206Z,43.97
2019-03-12T02:47:46.394Z,44.29
2019-03-12T02:50:16.232Z,44.12
2019-03-12T02:52:45.380Z,44.29
2019-03-12T02:55:15.850Z,44.60
2019-03-12T02:57:44.997Z,43.83
2019-03-12T03:00:22.484Z,44.12
2019-03-12T03:02:51.726Z,43.79
2019-03-12T03:05:20.942Z,43.73
2019-03-12T03:07:54.203Z,43.87
2019-03-12T03:10:23.459Z,43.60
2019-03-12T03:12:52.715Z,43.30
2019-03-12T03:15:35.574Z,43.20
2019-03-12T03:18:04.820Z,42.77
2019-03-12T03:20:34.190Z,43.18
2019-03-12T03:23:03.371Z,43.51
2019-03-12T03:25:32.573Z,43.70
2019-03-12T03:28:01.878Z,43.58
2019-03-12T03:30:31.191Z,43.71
2019-03-12T03:33:00.495Z,43.43
2019-03-12T03:35:29.695Z,43.09
2019-03-12T03:37:58.878Z,43.10
2019-03-12T03:40:28.044Z,42.93
2019-03-12T03:42:57.262Z,43.38
2019-03-12T03:45:26.662Z,43.09
2019-03-12T03:47:55.943Z,42.91
2019-03-12T03:50:25.178Z,43.15
2019-03-12T03:52:54.418Z,43.44
2019-03-12T03:55:23.760Z,43.71
2019-03-12T03:57:52.959Z,44.23
2019-03-12T04:00:23.395Z,44.45
2019-03-12T04:02:52.794Z,43.86
2019-03-12T04:05:22.060Z,43.69
2019-03-12T04:07:51.567Z,43.59
2019-03-12T04:10:20.870Z,44.13
2019-03-12T04:12:50.213Z,43.81
2019-03-12T04:15:19.879Z,43.70
2019-03-12T04:17:49.127Z,43.57
2019-03-12T04:20:18.872Z,43.49
2019-03-12T04:22:49.362Z,43.11
2019-03-12T04:25:18.756Z,43.69
2019-03-12T04:27:48.156Z,44.13
2019-03-12T04:30:18.501Z,43.82
2019-03-12T04:32:47.886Z,44.92
2019-03-12T04:35:23.459Z,45.57
2019-03-12T04:37:52.781Z,45.53
2019-03-12T04:40:22.031Z,45.70
2019-03-12T04:42:51.567Z,45.64
2019-03-12T04:45:20.990Z,45.92
2019-03-12T04:47:50.310Z,45.68
2019-03-12T04:50:19.730Z,44.79
2019-03-12T04:52:49.116Z,46.01
2019-03-12T04:55:18.513Z,46.42
2019-03-12T04:57:47.759Z,45.90
2019-03-12T05:00:20.627Z,45.38
2019-03-12T05:02:49.860Z,45.11
2019-03-12T05:05:19.183Z,44.70
2019-03-12T05:07:48.553Z,43.91
2019-03-12T05:10:17.911Z,43.67
2019-03-12T05:12:47.232Z,43.53
2019-03-12T05:15:20.491Z,43.38
2019-03-12T05:17:49.804Z,42.33
2019-03-12T05:20:19.058Z,41.75
2019-03-12T05:22:48.265Z,41.00
2019-03-12T05:25:17.629Z,41.36
2019-03-12T05:27:46.881Z,41.11
2019-03-12T05:30:19.608Z,41.65
2019-03-12T05:32:48.851Z,41.42
2019-03-12T05:35:18.311Z,41.13
2019-03-12T05:37:47.631Z,40.85
2019-03-12T05:40:16.956Z,40.75
2019-03-12T05:42:46.325Z,40.90
2019-03-12T05:45:19.928Z,40.70
2019-03-12T05:47:49.231Z,40.06
2019-03-12T05:50:21.783Z,39.51
2019-03-12T05:52:51.154Z,39.46
2019-03-12T05:55:20.447Z,39.22
2019-03-12T05:57:49.746Z,38.46
2019-03-12T06:00:21.586Z,37.72
2019-03-12T06:02:50.929Z,36.24
2019-03-12T06:05:20.371Z,35.17
2019-03-12T06:07:50.218Z,34.03
2019-03-12T06:10:19.414Z,33.75
2019-03-12T06:12:48.812Z,33.34
2019-03-12T06:15:18.332Z,33.52
2019-03-12T06:17:47.722Z,33.89
2019-03-12T06:20:17.623Z,33.91
2019-03-12T06:22:47.001Z,34.05
2019-03-12T06:25:16.246Z,34.28
2019-03-12T06:27:45.908Z,34.37
2019-03-12T06:30:46.107Z,35.65
2019-03-12T06:33:06.966Z,35.89
2019-03-12T06:35:37.802Z,36.04
2019-03-12T06:38:11.157Z,36.37
2019-03-12T06:40:50.986Z,36.21
2019-03-12T06:43:28.378Z,36.26
2019-03-12T06:46:11.032Z,36.32
2019-03-12T06:48:44.265Z,36.46
2019-03-12T06:51:17.824Z,37.21
2019-03-12T06:54:03.868Z,37.83
2019-03-12T06:56:34.830Z,38.75
2019-03-12T06:59:18.153Z,39.10
2019-03-12T07:01:58.265Z,38.53
2019-03-12T07:04:47.744Z,37.90
2019-03-12T07:07:34.897Z,37.82
2019-03-12T07:10:07.881Z,37.09
2019-03-12T07:12:54.976Z,36.08
2019-03-12T07:15:25.907Z,35.23
2019-03-12T07:17:56.872Z,35.63
2019-03-12T07:20:44.012Z,35.39
2019-03-12T07:23:20.741Z,35.00
2019-03-12T07:26:10.128Z,35.95
2019-03-12T07:28:57.361Z,36.56
2019-03-12T07:31:28.455Z,36.14
2019-03-12T07:33:59.599Z,35.44
2019-03-12T07:36:46.835Z,34.56
2019-03-12T07:39:20.971Z,32.50
2019-03-12T07:42:07.962Z,32.21
2019-03-12T07:44:38.898Z,31.71
2019-03-12T07:47:35.358Z,30.93
2019-03-12T07:50:06.322Z,29.39
2019-03-12T07:52:37.147Z,29.29
2019-03-12T07:55:24.707Z,29.88
2019-03-12T07:57:55.673Z,29.52
2019-03-12T08:00:26.556Z,30.41
2019-03-12T08:02:57.502Z,29.43
2019-03-12T08:05:28.683Z,27.78
2019-03-12T08:08:02.709Z,27.46
2019-03-12T08:10:48.681Z,27.59
2019-03-12T08:13:35.943Z,27.81
2019-03-12T08:16:24.685Z,28.51
2019-03-12T08:18:58.741Z,27.89
2019-03-12T08:21:41.877Z,26.24
2019-03-12T08:24:25.248Z,26.85
2019-03-12T08:27:08.492Z,26.83
2019-03-12T08:29:48.040Z,25.88
2019-03-12T08:32:23.891Z,25.43
2019-03-12T08:34:54.720Z,26.15
2019-03-12T08:37:25.533Z,26.45
2019-03-12T08:40:05.254Z,24.99
2019-03-12T08:42:38.680Z,24.17
2019-03-12T08:45:26.051Z,25.85
2019-03-12T08:48:02.617Z,25.89
2019-03-12T08:50:36.176Z,24.54
2019-03-12T08:53:12.471Z,24.38
2019-03-12T08:55:43.463Z,23.78
2019-03-12T08:58:20.367Z,24.26
2019-03-12T09:00:53.957Z,24.76
2019-03-12T09:03:43.120Z,25.07
2019-03-12T09:06:16.628Z,25.89
2019-03-12T09:09:02.385Z,27.38
2019-03-12T09:11:49.777Z,27.40
2019-03-12T09:14:20.842Z,27.74
2019-03-12T09:16:57.416Z,28.19
2019-03-12T09:19:44.296Z,29.26
2019-03-12T09:22:17.968Z,28.95
2019-03-12T09:24:57.950Z,29.17
2019-03-12T09:27:43.819Z,29.29
2019-03-12T09:30:14.659Z,28.50
2019-03-12T09:32:45.752Z,30.05
2019-03-12T09:35:22.339Z,30.39
2019-03-12T09:38:08.433Z,29.37
2019-03-12T09:40:42.174Z,30.08
2019-03-12T09:43:18.846Z,28.77
2019-03-12T09:45:52.783Z,28.65
2019-03-12T09:48:23.686Z,29.35
2019-03-12T09:50:54.504Z,28.91
2019-03-12T09:53:28.462Z,28.96
2019-03-12T09:56:11.295Z,28.56
2019-03-12T09:58:42.294Z,28.16
2019-03-12T10:01:22.714Z,28.16
2019-03-12T10:04:02.550Z,28.57
2019-03-12T10:06:39.398Z,29.66
2019-03-12T10:09:29.374Z,31.08
2019-03-12T10:12:00.223Z,29.86
2019-03-12T10:14:31.269Z,29.96
2019-03-12T10:17:13.919Z,29.32
2019-03-12T10:54:22.842Z,26.46
2019-03-12T10:56:52.081Z,26.38
2019-03-12T10:59:21.326Z,25.41
2019-03-12T11:01:50.557Z,25.38
2019-03-12T11:04:19.731Z,24.99
2019-03-12T11:06:48.913Z,24.03
2019-03-12T11:09:18.184Z,25.43
2019-03-12T11:11:47.371Z,25.92
2019-03-12T11:14:16.654Z,25.89
2019-03-12T11:16:45.932Z,25.61
2019-03-12T11:19:15.272Z,25.85
2019-03-12T11:21:44.554Z,24.71
2019-03-12T11:24:13.808Z,24.23
2019-03-12T11:26:43.239Z,22.83
2019-03-12T11:29:12.491Z,23.44
2019-03-12T11:31:41.810Z,22.07
2019-03-12T11:34:11.036Z,22.46
2019-03-12T11:36:40.278Z,22.74
2019-03-12T11:39:09.514Z,23.47
2019-03-12T11:41:38.805Z,23.85
2019-03-12T11:44:08.093Z,23.49
2019-03-12T11:46:44.352Z,23.76
2019-03-12T11:49:08.260Z,23.79
2019-03-12T11:51:37.609Z,23.45
2019-03-12T11:54:06.854Z,24.25
2019-03-12T11:56:36.090Z,24.25
2019-03-12T11:59:05.391Z,25.50
2019-03-12T12:01:34.734Z,24.49
2019-03-12T12:04:03.977Z,24.20
2019-03-12T12:06:33.147Z,23.23
2019-03-12T12:09:02.427Z,23.40
2019-03-12T12:11:31.635Z,24.16
2019-03-12T12:14:00.812Z,23.53
2019-03-12T12:16:30.061Z,23.65
2019-03-12T12:18:59.325Z,23.85
2019-03-12T12:21:28.636Z,23.51
2019-03-12T12:23:58.014Z,22.83
2019-03-12T12:26:27.187Z,22.83
2019-03-12T12:28:56.351Z,22.77
2019-03-12T12:31:25.571Z,23.40
2019-03-12T12:33:54.824Z,23.23
2019-03-12T12:36:24.064Z,23.37
2019-03-12T12:38:53.679Z,24.08
2019-03-12T12:41:22.932Z,23.80
2019-03-12T12:43:52.114Z,24.24
2019-03-12T12:46:21.389Z,24.34
2019-03-12T12:48:53.188Z,25.42
2019-03-12T12:51:21.623Z,25.18
2019-03-12T12:53:50.855Z,23.96
2019-03-12T12:56:20.221Z,23.01
2019-03-12T12:58:49.537Z,24.34
2019-03-12T13:01:18.796Z,25.27
2019-03-12T13:03:48.066Z,25.85
2019-03-12T13:06:17.279Z,25.35
2019-03-12T13:08:46.523Z,25.09
2019-03-12T13:11:15.700Z,25.14
2019-03-12T13:13:45.028Z,25.84
2019-03-12T13:16:24.493Z,26.07
2019-03-12T13:18:45.259Z,26.40
2019-03-12T13:21:14.479Z,26.25
2019-03-12T13:23:43.714Z,26.35
2019-03-12T13:26:12.951Z,24.53
2019-03-12T13:28:44.884Z,25.26
2019-03-12T13:31:13.131Z,25.33
2019-03-12T13:33:42.478Z,25.18
2019-03-12T13:36:13.387Z,25.62
2019-03-12T13:38:46.705Z,26.47
2019-03-12T13:41:13.621Z,26.12
2019-03-12T13:43:42.961Z,25.07
2019-03-12T13:46:12.242Z,25.34
2019-03-12T13:48:41.449Z,25.68
2019-03-12T13:51:10.729Z,24.68
2019-03-12T13:53:39.993Z,23.86
2019-03-12T13:56:09.303Z,23.76
2019-03-12T13:58:38.684Z,23.67
2019-03-12T14:01:07.939Z,23.97
2019-03-12T14:03:37.110Z,22.96
2019-03-12T14:06:06.381Z,22.77
2019-03-12T14:08:35.633Z,23.33
2019-03-12T14:11:05.002Z,23.43
2019-03-12T14:13:34.240Z,23.59
2019-03-12T14:16:03.480Z,23.39
2019-03-12T14:18:32.754Z,23.47
2019-03-12T14:21:07.763Z,23.46
2019-03-12T14:23:39.865Z,23.35
2019-03-12T14:26:09.162Z,23.60
2019-03-12T14:28:38.503Z,23.62
2019-03-12T14:31:07.822Z,23.80
2019-03-12T14:33:37.088Z,23.33
2019-03-12T14:36:06.604Z,24.04
2019-03-12T14:38:35.848Z,23.61
2019-03-12T14:41:05.090Z,23.40
2019-03-12T14:43:34.382Z,23.96
2019-03-12T14:46:03.619Z,24.33
2019-03-12T14:48:40.343Z,24.36
2019-03-12T14:51:18.736Z,23.90
2019-03-12T14:53:54.070Z,23.09
2019-03-12T14:56:26.721Z,23.39
2019-03-12T14:58:55.994Z,23.10
2019-03-12T15:01:25.196Z,23.14
2019-03-12T15:03:54.574Z,22.85
2019-03-12T15:06:23.744Z,22.58
2019-03-12T15:08:52.917Z,23.08
2019-03-12T15:11:22.217Z,23.56
2019-03-12T15:13:51.406Z,23.16
2019-03-12T15:16:20.660Z,22.82
2019-03-12T15:18:51.994Z,23.32
2019-03-12T15:21:20.843Z,22.60
2019-03-12T15:23:50.090Z,22.77
2019-03-12T15:26:19.377Z,23.09
2019-03-12T15:28:48.628Z,22.87
2019-03-12T15:31:18.056Z,22.91
2019-03-12T15:33:47.261Z,22.97
2019-03-12T15:36:16.457Z,22.56
2019-03-12T15:38:45.876Z,23.10
2019-03-12T15:41:15.106Z,23.13
2019-03-12T15:43:44.281Z,22.82
2019-03-12T15:46:13.528Z,23.11
2019-03-12T15:48:42.865Z,22.31
2019-03-12T15:51:12.043Z,22.67
2019-03-12T15:53:41.242Z,22.96
2019-03-12T15:56:10.484Z,23.06
2019-03-12T15:58:39.759Z,23.35
2019-03-12T16:01:08.931Z,23.42
2019-03-12T16:03:38.292Z,23.55
2019-03-12T16:06:07.536Z,23.94
2019-03-12T16:08:36.779Z,23.26
2019-03-12T16:11:06.413Z,23.33
2019-03-12T16:13:35.633Z,23.39
2019-03-12T16:16:05.399Z,23.61
2019-03-12T16:18:34.648Z,23.85
2019-03-12T16:21:03.821Z,23.42
2019-03-12T16:23:33.053Z,23.87
2019-03-12T16:26:02.289Z,23.87
2019-03-12T16:28:31.460Z,23.67
2019-03-12T16:31:00.669Z,23.24
2019-03-12T16:33:29.919Z,23.39
2019-03-12T16:35:59.213Z,23.08
2019-03-12T16:38:28.383Z,23.34
2019-03-12T16:40:57.896Z,23.59
2019-03-12T16:43:27.434Z,23.47
2019-03-12T16:45:56.677Z,23.88
2019-03-12T16:48:26.005Z,23.76
2019-03-12T16:50:55.302Z,24.17
2019-03-12T16:53:24.551Z,23.90
2019-03-12T16:55:53.732Z,24.17
2019-03-12T16:58:23.643Z,24.28
2019-03-12T17:00:52.821Z,24.75
2019-03-12T17:03:22.070Z,24.60
2019-03-12T17:05:51.610Z,25.62
2019-03-12T17:08:20.870Z,26.59
2019-03-12T17:10:58.207Z,27.25
2019-03-12T17:13:21.214Z,28.56
2019-03-12T17:15:54.451Z,29.51
2019-03-12T17:18:21.341Z,29.46
2019-03-12T17:20:50.642Z,29.95
2019-03-12T17:23:19.853Z,29.95
2019-03-12T17:25:49.190Z,30.47
2019-03-12T17:28:18.429Z,30.07
2019-03-12T17:30:47.618Z,30.08
2019-03-12T17:33:16.808Z,30.38
2019-03-12T17:35:46.239Z,30.45
2019-03-12T17:38:15.485Z,30.45
2019-03-12T17:40:44.670Z,30.64
2019-03-12T17:43:14.042Z,30.58
2019-03-12T17:45:43.364Z,31.99
2019-03-12T17:48:12.617Z,32.41
2019-03-12T17:50:41.838Z,32.96
2019-03-12T17:53:11.028Z,33.21
2019-03-12T17:55:40.207Z,32.70
2019-03-12T17:58:09.575Z,33.16
2019-03-12T18:00:40.423Z,33.20
2019-03-12T18:03:09.668Z,33.17
2019-03-12T18:05:38.972Z,32.85
2019-03-12T18:08:08.260Z,32.54
2019-03-12T18:10:37.418Z,32.29
2019-03-12T18:13:06.694Z,32.13
2019-03-12T18:15:35.906Z,32.06
2019-03-12T18:18:05.256Z,32.02
2019-03-12T18:20:34.406Z,32.05
2019-03-12T18:23:03.662Z,32.65
2019-03-12T18:25:37.758Z,33.30
2019-03-12T18:28:09.257Z,33.88
2019-03-12T18:30:38.536Z,34.49
2019-03-12T18:33:07.900Z,34.63
2019-03-12T18:35:37.146Z,34.83
2019-03-12T18:38:06.473Z,34.24
2019-03-12T18:40:35.818Z,35.77
2019-03-12T18:43:05.121Z,35.99
2019-03-12T18:45:38.743Z,35.88
2019-03-12T18:48:07.975Z,35.98
2019-03-12T18:50:37.220Z,35.37
2019-03-12T18:53:06.524Z,35.53
2019-03-12T18:55:44.104Z,35.69
2019-03-12T18:58:13.355Z,35.97
2019-03-12T19:00:48.529Z,36.27
2019-03-12T19:03:16.915Z,36.12
2019-03-12T19:05:46.091Z,35.91
2019-03-12T19:08:15.372Z,35.64
2019-03-12T19:10:44.746Z,35.69
2019-03-12T19:13:13.987Z,35.47
2019-03-12T19:15:43.292Z,35.34
2019-03-12T19:18:12.566Z,35.00
2019-03-12T19:20:41.856Z,35.78
2019-03-12T19:23:11.092Z,35.73
2019-03-12T19:25:43.281Z,36.11
2019-03-12T19:28:12.569Z,36.04
2019-03-12T19:30:41.983Z,36.00
2019-03-12T19:33:12.815Z,35.81
2019-03-12T19:35:42.014Z,35.68
2019-03-12T19:38:11.328Z,35.43
2019-03-12T19:40:45.861Z,35.51
2019-03-12T19:43:15.183Z,35.59
2019-03-12T19:45:44.358Z,35.56
2019-03-12T19:48:13.634Z,35.88
2019-03-12T19:50:42.879Z,36.15
2019-03-12T19:53:12.145Z,36.13
2019-03-12T19:55:53.643Z,36.06
2019-03-12T19:58:22.970Z,36.52
2019-03-12T20:00:52.569Z,36.60
2019-03-12T20:03:21.812Z,36.21
2019-03-12T20:05:51.113Z,36.21
2019-03-12T20:08:20.315Z,36.02
2019-03-12T20:11:07.959Z,36.08
2019-03-12T20:14:07.707Z,36.32
2019-03-12T20:17:09.120Z,37.08
2019-03-12T20:19:57.316Z,37.13
2019-03-12T20:22:58.629Z,37.71
2019-03-12T20:26:04.470Z,37.15
2019-03-12T20:29:10.906Z,37.57
2019-03-12T20:32:01.582Z,37.41
2019-03-12T20:35:09.372Z,37.33
2019-03-12T20:38:02.674Z,37.31
2019-03-12T20:40:57.993Z,37.06
2019-03-12T20:43:55.905Z,36.86
2019-03-12T20:46:37.257Z,36.39
2019-03-12T20:49:26.810Z,36.45
2019-03-12T20:52:32.449Z,36.38
2019-03-12T20:55:20.161Z,36.24
2019-03-12T20:58:24.220Z,36.18
2019-03-12T21:01:21.772Z,36.22
2019-03-12T21:04:18.118Z,36.03
2019-03-12T21:07:23.776Z,36.44
2019-03-12T21:10:25.168Z,36.37
2019-03-12T21:13:32.354Z,36.69
2019-03-12T21:16:33.851Z,37.24
2019-03-12T21:19:39.619Z,37.96
2019-03-12T21:22:23.921Z,38.91
2019-03-12T21:24:56.356Z,39.11
2019-03-12T21:27:26.546Z,38.15
2019-03-12T21:29:55.031Z,37.85
2019-03-12T21:32:24.201Z,38.08
2019-03-12T21:34:53.446Z,38.03
2019-03-12T21:37:22.717Z,38.25
2019-03-12T21:39:55.833Z,38.54
2019-03-12T21:42:25.281Z,38.95
2019-03-12T21:44:54.031Z,39.06
2019-03-12T21:47:23.375Z,39.43
2019-03-12T21:49:52.614Z,39.30
2019-03-12T21:52:21.890Z,38.82
2019-03-12T21:54:51.161Z,38.77
2019-03-12T21:57:20.346Z,38.84
2019-03-12T21:59:49.622Z,38.93
2019-03-12T22:02:18.871Z,39.20
2019-03-12T22:04:48.113Z,39.50
2019-03-12T22:07:17.362Z,39.39
2019-03-12T22:09:46.612Z,39.72
2019-03-12T22:12:15.852Z,39.58
2019-03-12T22:14:45.089Z,40.27
2019-03-12T22:17:14.343Z,40.32
2019-03-12T22:19:43.594Z,40.46
2019-03-12T22:22:26.306Z,40.18
2019-03-12T22:25:08.227Z,40.17
2019-03-12T22:27:37.400Z,40.56
2019-03-12T22:30:26.148Z,40.53
2019-03-12T22:32:55.324Z,40.46
2019-03-12T22:35:24.565Z,41.50
2019-03-12T22:37:53.804Z,41.93
2019-03-12T22:40:23.061Z,42.24
2019-03-12T22:42:52.245Z,42.82
2019-03-12T22:45:21.545Z,43.37
2019-03-12T22:47:50.732Z,43.96
2019-03-12T22:50:20.054Z,44.26
2019-03-12T22:52:49.337Z,44.63
2019-03-12T22:55:18.585Z,43.82
2019-03-12T22:57:47.835Z,42.62
2019-03-12T23:00:19.590Z,42.59
2019-03-12T23:02:48.890Z,41.86
2019-03-12T23:05:18.142Z,40.87
2019-03-12T23:07:47.464Z,40.28
2019-03-12T23:10:17.330Z,40.74
2019-03-12T23:12:46.670Z,39.95
2019-03-12T23:15:17.486Z,39.74
2019-03-12T23:17:46.714Z,40.72
2019-03-12T23:20:18.983Z,40.71
2019-03-12T23:22:48.241Z,41.10
2019-03-12T23:25:17.538Z,40.95
2019-03-12T23:27:46.799Z,40.92
2019-03-12T23:30:17.716Z,40.97
2019-03-12T23:32:47.042Z,41.33
2019-03-12T23:35:16.235Z,41.07
2019-03-12T23:37:45.492Z,40.81
2019-03-12T23:40:18.656Z,40.26
2019-03-12T23:42:47.850Z,40.35
2019-03-12T23:45:17.197Z,40.90
2019-03-12T23:47:46.516Z,40.99
2019-03-12T23:50:18.878Z,41.19
2019-03-12T23:52:47.452Z,41.49
2019-03-12T23:55:18.398Z,41.95
2019-03-12T23:57:47.657Z,43.45
